sensor_id;sensor_type;location;lat;lon;timestamp;pressure;altitude;pressure_sealevel;temperature;humidity
12801;BME280;6464;42.494;27.470;2022-07-23T04:37:55;101574.84;;;22.32;100.00
12801;BME280;6464;42.494;27.470;2022-07-23T04:40:27;101542.56;;;22.16;100.00
12801;BME280;6464;42.494;27.470;2022-07-23T04:42:59;101463.56;;;21.70;100.00
12801;BME280;6464;42.494;27.470;2022-07-23T04:48:24;101610.59;;;22.83;100.00
12801;BME280;6464;42.494;27.470;2022-07-23T04:51:07;101476.91;;;22.04;100.00
12801;BME280;6464;42.494;27.470;2022-07-23T04:53:43;101606.16;;;22.82;100.00
12801;BME280;6464;42.494;27.470;2022-07-23T05:02:55;101620.78;;;22.94;100.00
12801;BME280;6464;42.494;27.470;2022-07-23T05:05:35;101599.44;;;23.06;100.00
12801;BME280;6464;42.494;27.470;2022-07-23T05:08:03;101535.72;;;22.75;100.00
12801;BME280;6464;42.494;27.470;2022-07-23T05:10:33;101622.69;;;23.23;100.00
12801;BME280;6464;42.494;27.470;2022-07-23T05:13:00;101533.53;;;22.82;100.00
12801;BME280;6464;42.494;27.470;2022-07-23T05:15:27;101553.78;;;22.89;100.00
12801;BME280;6464;42.494;27.470;2022-07-23T05:17:56;101568.91;;;23.07;100.00
12801;BME280;6464;42.494;27.470;2022-07-23T05:20:23;101560.44;;;22.82;100.00
12801;BME280;6464;42.494;27.470;2022-07-23T05:22:53;101579.41;;;23.12;100.00
12801;BME280;6464;42.494;27.470;2022-07-23T05:28:36;101651.06;;;23.60;100.00
12801;BME280;6464;42.494;27.470;2022-07-23T05:31:11;101595.00;;;23.37;100.00
12801;BME280;6464;42.494;27.470;2022-07-23T05:33:38;101632.19;;;23.76;100.00
12801;BME280;6464;42.494;27.470;2022-07-23T05:36:05;101607.63;;;23.67;100.00
12801;BME280;6464;42.494;27.470;2022-07-23T05:38:33;101608.16;;;23.88;100.00
12801;BME280;6464;42.494;27.470;2022-07-23T05:41:00;101659.69;;;24.27;100.00
12801;BME280;6464;42.494;27.470;2022-07-23T05:43:27;101669.22;;;24.33;100.00
12801;BME280;6464;42.494;27.470;2022-07-23T05:45:56;101631.16;;;24.23;100.00
12801;BME280;6464;42.494;27.470;2022-07-23T05:48:23;101658.84;;;24.55;100.00
12801;BME280;6464;42.494;27.470;2022-07-23T05:50:50;101666.75;;;24.73;100.00
12801;BME280;6464;42.494;27.470;2022-07-23T05:53:17;101670.31;;;24.87;100.00
12801;BME280;6464;42.494;27.470;2022-07-23T05:55:47;101631.41;;;24.77;100.00
12801;BME280;6464;42.494;27.470;2022-07-23T05:58:14;101676.47;;;25.04;100.00
12801;BME280;6464;42.494;27.470;2022-07-23T06:00:44;101701.00;;;25.15;100.00
12801;BME280;6464;42.494;27.470;2022-07-23T06:03:13;101679.97;;;25.20;100.00
12801;BME280;6464;42.494;27.470;2022-07-23T06:05:40;101706.34;;;25.44;100.00
12801;BME280;6464;42.494;27.470;2022-07-23T06:08:07;101716.88;;;25.61;100.00
12801;BME280;6464;42.494;27.470;2022-07-23T06:10:34;101622.00;;;25.26;100.00
12801;BME280;6464;42.494;27.470;2022-07-23T06:13:01;101721.63;;;25.99;100.00
12801;BME280;6464;42.494;27.470;2022-07-23T06:15:28;101706.56;;;25.95;100.00
12801;BME280;6464;42.494;27.470;2022-07-23T06:17:55;101679.34;;;25.98;100.00
12801;BME280;6464;42.494;27.470;2022-07-23T06:20:24;101683.81;;;26.11;100.00
12801;BME280;6464;42.494;27.470;2022-07-23T06:22:51;101698.09;;;26.26;100.00
12801;BME280;6464;42.494;27.470;2022-07-23T06:25:19;101704.38;;;26.39;100.00
12801;BME280;6464;42.494;27.470;2022-07-23T06:27:46;101698.69;;;26.57;100.00
12801;BME280;6464;42.494;27.470;2022-07-23T06:30:14;101715.38;;;26.76;100.00
12801;BME280;6464;42.494;27.470;2022-07-23T06:32:42;101724.09;;;26.92;100.00
12801;BME280;6464;42.494;27.470;2022-07-23T06:35:09;101697.56;;;26.98;100.00
12801;BME280;6464;42.494;27.470;2022-07-23T06:37:38;101679.81;;;27.06;100.00
12801;BME280;6464;42.494;27.470;2022-07-23T06:40:06;101724.31;;;27.28;100.00
12801;BME280;6464;42.494;27.470;2022-07-23T06:42:33;101747.59;;;27.30;100.00
12801;BME280;6464;42.494;27.470;2022-07-23T06:45:02;101749.75;;;27.38;100.00
12801;BME280;6464;42.494;27.470;2022-07-23T06:47:29;101760.13;;;27.57;100.00
12801;BME280;6464;42.494;27.470;2022-07-23T06:49:56;101771.16;;;27.54;100.00
12801;BME280;6464;42.494;27.470;2022-07-23T06:52:23;101725.78;;;27.45;100.00
12801;BME280;6464;42.494;27.470;2022-07-23T06:54:52;101753.72;;;27.58;100.00
12801;BME280;6464;42.494;27.470;2022-07-23T06:57:19;101759.00;;;27.72;100.00
12801;BME280;6464;42.494;27.470;2022-07-23T06:59:46;101773.78;;;27.92;100.00
12801;BME280;6464;42.494;27.470;2022-07-23T07:02:13;101732.13;;;27.93;100.00
12801;BME280;6464;42.494;27.470;2022-07-23T07:04:40;101776.53;;;28.27;100.00
12801;BME280;6464;42.494;27.470;2022-07-23T07:07:07;101770.75;;;28.32;100.00
12801;BME280;6464;42.494;27.470;2022-07-23T07:09:34;101761.56;;;28.34;100.00
12801;BME280;6464;42.494;27.470;2022-07-23T07:12:03;101755.94;;;28.25;100.00
12801;BME280;6464;42.494;27.470;2022-07-23T07:14:31;101772.31;;;28.47;100.00
12801;BME280;6464;42.494;27.470;2022-07-23T07:16:57;101713.13;;;28.28;100.00
12801;BME280;6464;42.494;27.470;2022-07-23T07:19:24;101777.16;;;28.66;100.00
12801;BME280;6464;42.494;27.470;2022-07-23T07:21:51;101773.88;;;28.85;100.00
12801;BME280;6464;42.494;27.470;2022-07-23T07:24:18;101753.28;;;28.82;100.00
12801;BME280;6464;42.494;27.470;2022-07-23T07:26:45;101747.00;;;28.93;100.00
12801;BME280;6464;42.494;27.470;2022-07-23T07:29:14;101777.53;;;29.30;100.00
12801;BME280;6464;42.494;27.470;2022-07-23T07:31:41;101778.00;;;29.24;100.00
12801;BME280;6464;42.494;27.470;2022-07-23T07:34:08;101767.25;;;29.00;100.00
12801;BME280;6464;42.494;27.470;2022-07-23T07:36:35;101771.59;;;29.14;100.00
12801;BME280;6464;42.494;27.470;2022-07-23T07:39:02;101783.44;;;29.13;100.00
12801;BME280;6464;42.494;27.470;2022-07-23T07:41:29;101779.72;;;29.25;100.00
12801;BME280;6464;42.494;27.470;2022-07-23T07:43:56;101784.53;;;29.44;100.00
12801;BME280;6464;42.494;27.470;2022-07-23T07:46:25;101794.06;;;29.50;100.00
12801;BME280;6464;42.494;27.470;2022-07-23T07:48:53;101773.91;;;29.75;100.00
12801;BME280;6464;42.494;27.470;2022-07-23T07:51:20;101738.59;;;29.41;100.00
12801;BME280;6464;42.494;27.470;2022-07-23T07:53:47;101717.72;;;29.41;100.00
12801;BME280;6464;42.494;27.470;2022-07-23T07:56:14;101718.44;;;29.43;100.00
12801;BME280;6464;42.494;27.470;2022-07-23T07:58:41;101741.97;;;29.88;100.00
12801;BME280;6464;42.494;27.470;2022-07-23T08:01:08;101733.38;;;29.72;100.00
12801;BME280;6464;42.494;27.470;2022-07-23T08:03:36;101737.03;;;29.82;100.00
12801;BME280;6464;42.494;27.470;2022-07-23T08:06:03;101738.44;;;30.08;100.00
12801;BME280;6464;42.494;27.470;2022-07-23T08:08:31;101784.28;;;30.24;100.00
12801;BME280;6464;42.494;27.470;2022-07-23T08:10:57;101747.97;;;30.35;100.00
12801;BME280;6464;42.494;27.470;2022-07-23T08:13:24;101762.13;;;30.50;100.00
12801;BME280;6464;42.494;27.470;2022-07-23T08:15:51;101766.31;;;30.54;100.00
12801;BME280;6464;42.494;27.470;2022-07-23T08:18:19;101750.44;;;30.38;100.00
12801;BME280;6464;42.494;27.470;2022-07-23T08:20:48;101755.94;;;30.89;100.00
12801;BME280;6464;42.494;27.470;2022-07-23T08:23:15;101764.22;;;31.09;100.00
12801;BME280;6464;42.494;27.470;2022-07-23T08:25:45;101765.16;;;31.19;100.00
12801;BME280;6464;42.494;27.470;2022-07-23T08:28:14;101756.22;;;31.17;100.00
12801;BME280;6464;42.494;27.470;2022-07-23T08:30:42;101741.34;;;30.90;100.00
12801;BME280;6464;42.494;27.470;2022-07-23T08:33:11;101753.88;;;31.03;100.00
12801;BME280;6464;42.494;27.470;2022-07-23T08:35:40;101759.88;;;31.27;100.00
12801;BME280;6464;42.494;27.470;2022-07-23T08:38:10;101744.56;;;31.36;100.00
12801;BME280;6464;42.494;27.470;2022-07-23T08:40:39;101773.25;;;31.30;100.00
12801;BME280;6464;42.494;27.470;2022-07-23T08:43:07;101779.66;;;31.60;100.00
12801;BME280;6464;42.494;27.470;2022-07-23T08:45:37;101761.81;;;31.46;100.00
12801;BME280;6464;42.494;27.470;2022-07-23T08:48:07;101796.41;;;32.24;100.00
12801;BME280;6464;42.494;27.470;2022-07-23T08:50:35;101793.53;;;31.97;100.00
12801;BME280;6464;42.494;27.470;2022-07-23T08:53:06;101786.47;;;31.94;100.00
12801;BME280;6464;42.494;27.470;2022-07-23T08:55:34;101788.63;;;32.10;100.00
12801;BME280;6464;42.494;27.470;2022-07-23T08:58:01;101803.75;;;32.43;100.00
12801;BME280;6464;42.494;27.470;2022-07-23T09:00:28;101801.84;;;32.73;100.00
12801;BME280;6464;42.494;27.470;2022-07-23T09:02:56;101845.34;;;33.23;100.00
12801;BME280;6464;42.494;27.470;2022-07-23T09:05:23;101836.81;;;32.98;100.00
12801;BME280;6464;42.494;27.470;2022-07-23T09:08:07;101836.97;;;32.48;100.00
12801;BME280;6464;42.494;27.470;2022-07-23T09:10:51;101843.72;;;32.44;100.00
12801;BME280;6464;42.494;27.470;2022-07-23T09:13:25;101829.19;;;32.44;100.00
12801;BME280;6464;42.494;27.470;2022-07-23T09:15:54;101806.47;;;32.63;100.00
12801;BME280;6464;42.494;27.470;2022-07-23T09:18:35;101838.78;;;33.06;100.00
12801;BME280;6464;42.494;27.470;2022-07-23T09:21:12;101839.44;;;33.28;100.00
12801;BME280;6464;42.494;27.470;2022-07-23T09:23:41;101842.59;;;33.42;100.00
12801;BME280;6464;42.494;27.470;2022-07-23T09:26:27;101837.66;;;33.36;100.00
12801;BME280;6464;42.494;27.470;2022-07-23T09:29:04;101852.06;;;33.48;100.00
12801;BME280;6464;42.494;27.470;2022-07-23T09:31:33;101846.06;;;33.25;100.00
12801;BME280;6464;42.494;27.470;2022-07-23T09:34:08;101846.66;;;33.19;100.00
12801;BME280;6464;42.494;27.470;2022-07-23T09:36:36;101835.94;;;33.35;100.00
12801;BME280;6464;42.494;27.470;2022-07-23T09:39:04;101835.13;;;33.25;100.00
12801;BME280;6464;42.494;27.470;2022-07-23T09:41:37;101843.34;;;33.62;100.00
12801;BME280;6464;42.494;27.470;2022-07-23T09:44:09;101859.72;;;34.89;100.00
12801;BME280;6464;42.494;27.470;2022-07-23T09:46:37;101862.50;;;35.15;100.00
12801;BME280;6464;42.494;27.470;2022-07-23T09:49:17;101864.53;;;35.65;100.00
12801;BME280;6464;42.494;27.470;2022-07-23T09:51:46;101874.03;;;36.37;100.00
12801;BME280;6464;42.494;27.470;2022-07-23T09:54:25;101867.56;;;36.63;100.00
12801;BME280;6464;42.494;27.470;2022-07-23T09:56:56;101856.38;;;36.72;100.00
12801;BME280;6464;42.494;27.470;2022-07-23T09:59:25;101870.59;;;37.25;100.00
12801;BME280;6464;42.494;27.470;2022-07-23T10:01:53;101861.50;;;37.16;100.00
12801;BME280;6464;42.494;27.470;2022-07-23T10:04:23;101845.72;;;36.69;100.00
12801;BME280;6464;42.494;27.470;2022-07-23T10:06:52;101843.13;;;36.84;100.00
12801;BME280;6464;42.494;27.470;2022-07-23T10:09:24;101821.81;;;36.29;100.00
12801;BME280;6464;42.494;27.470;2022-07-23T10:11:52;101812.41;;;36.64;100.00
12801;BME280;6464;42.494;27.470;2022-07-23T10:14:23;101824.56;;;37.19;100.00
12801;BME280;6464;42.494;27.470;2022-07-23T10:16:50;101812.56;;;36.79;100.00
12801;BME280;6464;42.494;27.470;2022-07-23T10:19:18;101815.00;;;36.58;100.00
12801;BME280;6464;42.494;27.470;2022-07-23T10:21:46;101794.66;;;37.08;100.00
12801;BME280;6464;42.494;27.470;2022-07-23T10:24:21;101809.50;;;37.46;100.00
12801;BME280;6464;42.494;27.470;2022-07-23T10:27:00;101774.78;;;36.65;100.00
12801;BME280;6464;42.494;27.470;2022-07-23T10:29:39;101758.63;;;36.94;100.00
12801;BME280;6464;42.494;27.470;2022-07-23T10:32:17;101792.09;;;37.06;100.00
12801;BME280;6464;42.494;27.470;2022-07-23T10:34:55;101796.47;;;37.71;100.00
12801;BME280;6464;42.494;27.470;2022-07-23T10:37:28;101789.50;;;36.88;100.00
12801;BME280;6464;42.494;27.470;2022-07-23T10:40:09;101767.41;;;36.49;100.00
12801;BME280;6464;42.494;27.470;2022-07-23T10:42:37;101781.94;;;37.07;100.00
12801;BME280;6464;42.494;27.470;2022-07-23T10:45:23;101764.81;;;36.31;100.00
12801;BME280;6464;42.494;27.470;2022-07-23T10:47:51;101738.19;;;36.64;100.00
12801;BME280;6464;42.494;27.470;2022-07-23T10:50:20;101782.38;;;37.43;100.00
12801;BME280;6464;42.494;27.470;2022-07-23T10:53:09;101764.44;;;36.99;100.00
12801;BME280;6464;42.494;27.470;2022-07-23T10:55:44;101759.00;;;36.50;100.00
12801;BME280;6464;42.494;27.470;2022-07-23T10:58:17;101748.69;;;36.44;100.00
12801;BME280;6464;42.494;27.470;2022-07-23T11:00:46;101760.97;;;36.89;100.00
12801;BME280;6464;42.494;27.470;2022-07-23T11:03:34;101726.53;;;36.38;100.00
12801;BME280;6464;42.494;27.470;2022-07-23T11:06:04;101777.38;;;39.43;100.00
12801;BME280;6464;42.494;27.470;2022-07-23T11:08:31;101767.78;;;40.54;100.00
12801;BME280;6464;42.494;27.470;2022-07-23T11:11:09;101787.88;;;41.87;100.00
12801;BME280;6464;42.494;27.470;2022-07-23T11:13:45;101822.28;;;42.13;100.00
12801;BME280;6464;42.494;27.470;2022-07-23T11:16:19;101799.84;;;41.40;100.00
12801;BME280;6464;42.494;27.470;2022-07-23T11:19:03;101755.81;;;38.35;100.00
12801;BME280;6464;42.494;27.470;2022-07-23T11:21:42;101696.34;;;37.10;100.00
12801;BME280;6464;42.494;27.470;2022-07-23T11:24:11;101710.38;;;36.67;100.00
12801;BME280;6464;42.494;27.470;2022-07-23T11:26:50;101741.81;;;39.70;100.00
12801;BME280;6464;42.494;27.470;2022-07-23T11:29:46;101786.19;;;41.86;100.00
12801;BME280;6464;42.494;27.470;2022-07-23T11:32:32;101788.38;;;43.03;100.00
12801;BME280;6464;42.494;27.470;2022-07-23T11:35:01;101764.28;;;42.77;100.00
12801;BME280;6464;42.494;27.470;2022-07-23T11:37:34;101793.09;;;43.99;100.00
12801;BME280;6464;42.494;27.470;2022-07-23T11:40:03;101793.00;;;43.23;100.00
12801;BME280;6464;42.494;27.470;2022-07-23T11:42:34;101762.34;;;43.94;100.00
12801;BME280;6464;42.494;27.470;2022-07-23T11:45:03;101799.34;;;45.56;100.00
12801;BME280;6464;42.494;27.470;2022-07-23T11:47:32;101783.59;;;44.45;100.00
12801;BME280;6464;42.494;27.470;2022-07-23T11:50:00;101769.50;;;44.40;100.00
12801;BME280;6464;42.494;27.470;2022-07-23T11:52:28;101794.41;;;45.03;100.00
12801;BME280;6464;42.494;27.470;2022-07-23T11:54:56;101785.72;;;45.48;100.00
12801;BME280;6464;42.494;27.470;2022-07-23T11:57:25;101790.56;;;46.13;100.00
12801;BME280;6464;42.494;27.470;2022-07-23T11:59:56;101789.28;;;45.55;100.00
12801;BME280;6464;42.494;27.470;2022-07-23T12:02:23;101800.41;;;46.57;100.00
12801;BME280;6464;42.494;27.470;2022-07-23T12:04:53;101796.00;;;46.61;100.00
12801;BME280;6464;42.494;27.470;2022-07-23T12:07:27;101790.94;;;46.58;100.00
12801;BME280;6464;42.494;27.470;2022-07-23T12:09:55;101787.50;;;46.80;100.00
12801;BME280;6464;42.494;27.470;2022-07-23T12:12:22;101776.81;;;46.30;100.00
12801;BME280;6464;42.494;27.470;2022-07-23T12:14:51;101763.66;;;45.28;100.00
12801;BME280;6464;42.494;27.470;2022-07-23T12:17:19;101737.69;;;44.54;100.00
12801;BME280;6464;42.494;27.470;2022-07-23T12:19:47;101735.47;;;43.88;100.00
12801;BME280;6464;42.494;27.470;2022-07-23T12:22:16;101739.38;;;44.80;100.00
12801;BME280;6464;42.494;27.470;2022-07-23T12:24:54;101762.06;;;44.59;100.00
12801;BME280;6464;42.494;27.470;2022-07-23T12:27:21;101757.31;;;44.84;100.00
12801;BME280;6464;42.494;27.470;2022-07-23T12:29:49;101758.03;;;44.98;100.00
12801;BME280;6464;42.494;27.470;2022-07-23T12:32:18;101736.38;;;44.64;100.00
12801;BME280;6464;42.494;27.470;2022-07-23T12:34:45;101765.63;;;45.09;100.00
12801;BME280;6464;42.494;27.470;2022-07-23T12:37:27;101749.34;;;45.43;100.00
12801;BME280;6464;42.494;27.470;2022-07-23T12:39:55;101770.97;;;45.59;100.00
12801;BME280;6464;42.494;27.470;2022-07-23T12:42:22;101746.97;;;45.47;100.00
12801;BME280;6464;42.494;27.470;2022-07-23T12:45:07;101754.84;;;44.95;100.00
12801;BME280;6464;42.494;27.470;2022-07-23T12:47:58;101755.41;;;45.22;100.00
12801;BME280;6464;42.494;27.470;2022-07-23T12:50:43;101765.38;;;45.78;100.00
12801;BME280;6464;42.494;27.470;2022-07-23T12:53:14;101649.81;;;39.12;100.00
12801;BME280;6464;42.494;27.470;2022-07-23T12:55:43;101643.84;;;37.50;100.00
12801;BME280;6464;42.494;27.470;2022-07-23T12:58:14;101645.38;;;37.53;100.00
12801;BME280;6464;42.494;27.470;2022-07-23T13:01:04;101613.81;;;35.98;100.00
12801;BME280;6464;42.494;27.470;2022-07-23T13:03:34;101613.44;;;36.18;100.00
12801;BME280;6464;42.494;27.470;2022-07-23T13:06:03;101606.22;;;35.68;100.00
12801;BME280;6464;42.494;27.470;2022-07-23T13:08:32;101601.59;;;36.01;100.00
12801;BME280;6464;42.494;27.470;2022-07-23T13:11:00;101607.63;;;35.64;100.00
12801;BME280;6464;42.494;27.470;2022-07-23T13:13:29;101616.44;;;35.33;100.00
12801;BME280;6464;42.494;27.470;2022-07-23T13:15:57;101617.06;;;35.69;100.00
12801;BME280;6464;42.494;27.470;2022-07-23T13:18:25;101575.72;;;35.55;100.00
12801;BME280;6464;42.494;27.470;2022-07-23T13:20:52;101618.22;;;35.59;100.00
12801;BME280;6464;42.494;27.470;2022-07-23T13:23:19;101602.97;;;35.48;100.00
12801;BME280;6464;42.494;27.470;2022-07-23T13:25:48;101588.66;;;35.20;100.00
12801;BME280;6464;42.494;27.470;2022-07-23T13:28:16;101592.75;;;35.08;100.00
12801;BME280;6464;42.494;27.470;2022-07-23T13:30:44;101582.91;;;35.56;100.00
12801;BME280;6464;42.494;27.470;2022-07-23T13:33:13;101551.91;;;34.88;100.00
12801;BME280;6464;42.494;27.470;2022-07-23T13:35:40;101571.56;;;35.26;100.00
12801;BME280;6464;42.494;27.470;2022-07-23T13:38:07;101589.94;;;35.66;100.00
12801;BME280;6464;42.494;27.470;2022-07-23T13:40:35;101654.63;;;35.93;100.00
12801;BME280;6464;42.494;27.470;2022-07-23T13:43:06;101662.53;;;35.96;100.00
12801;BME280;6464;42.494;27.470;2022-07-23T13:45:33;101657.72;;;36.07;100.00
12801;BME280;6464;42.494;27.470;2022-07-23T13:48:01;101658.03;;;36.44;100.00
12801;BME280;6464;42.494;27.470;2022-07-23T13:50:28;101670.41;;;36.24;100.00
12801;BME280;6464;42.494;27.470;2022-07-23T13:52:55;101686.72;;;37.05;100.00
12801;BME280;6464;42.494;27.470;2022-07-23T13:55:22;101672.31;;;36.32;100.00
12801;BME280;6464;42.494;27.470;2022-07-23T13:57:49;101661.63;;;35.88;100.00
12801;BME280;6464;42.494;27.470;2022-07-23T14:00:18;101662.88;;;36.01;100.00
12801;BME280;6464;42.494;27.470;2022-07-23T14:02:45;101626.81;;;35.88;100.00
12801;BME280;6464;42.494;27.470;2022-07-23T14:05:12;101605.56;;;35.49;100.00
12801;BME280;6464;42.494;27.470;2022-07-23T14:07:39;101599.47;;;34.79;100.00
12801;BME280;6464;42.494;27.470;2022-07-23T14:10:09;101587.84;;;34.43;100.00
12801;BME280;6464;42.494;27.470;2022-07-23T14:12:36;101601.66;;;35.01;100.00
12801;BME280;6464;42.494;27.470;2022-07-23T14:15:05;101588.09;;;34.58;100.00
12801;BME280;6464;42.494;27.470;2022-07-23T14:17:35;101578.50;;;34.54;100.00
12801;BME280;6464;42.494;27.470;2022-07-23T14:20:03;101576.19;;;34.15;100.00
12801;BME280;6464;42.494;27.470;2022-07-23T14:22:30;101586.25;;;34.06;100.00
12801;BME280;6464;42.494;27.470;2022-07-23T14:24:57;101574.50;;;34.14;100.00
12801;BME280;6464;42.494;27.470;2022-07-23T14:27:26;101558.00;;;33.62;100.00
12801;BME280;6464;42.494;27.470;2022-07-23T14:29:53;101583.31;;;34.08;100.00
12801;BME280;6464;42.494;27.470;2022-07-23T14:32:20;101543.09;;;33.82;100.00
12801;BME280;6464;42.494;27.470;2022-07-23T14:34:49;101557.53;;;34.10;100.00
12801;BME280;6464;42.494;27.470;2022-07-23T14:37:16;101481.66;;;33.50;100.00
12801;BME280;6464;42.494;27.470;2022-07-23T14:39:43;101555.59;;;34.03;100.00
12801;BME280;6464;42.494;27.470;2022-07-23T14:42:11;101558.88;;;33.88;100.00
12801;BME280;6464;42.494;27.470;2022-07-23T14:44:38;101569.38;;;33.75;100.00
12801;BME280;6464;42.494;27.470;2022-07-23T14:47:05;101544.63;;;33.23;100.00
12801;BME280;6464;42.494;27.470;2022-07-23T14:49:33;101552.00;;;33.84;100.00
12801;BME280;6464;42.494;27.470;2022-07-23T14:52:02;101548.78;;;33.63;100.00
12801;BME280;6464;42.494;27.470;2022-07-23T14:54:29;101534.81;;;33.12;100.00
12801;BME280;6464;42.494;27.470;2022-07-23T14:56:57;101546.75;;;32.84;100.00
12801;BME280;6464;42.494;27.470;2022-07-23T14:59:25;101549.00;;;32.98;100.00
12801;BME280;6464;42.494;27.470;2022-07-23T15:01:52;101552.84;;;33.23;100.00
12801;BME280;6464;42.494;27.470;2022-07-23T15:04:20;101471.41;;;32.36;100.00
12801;BME280;6464;42.494;27.470;2022-07-23T15:06:48;101535.94;;;32.64;100.00
12801;BME280;6464;42.494;27.470;2022-07-23T15:09:16;101521.19;;;32.10;100.00
12801;BME280;6464;42.494;27.470;2022-07-23T15:11:43;101531.75;;;32.70;100.00
12801;BME280;6464;42.494;27.470;2022-07-23T15:14:10;101534.53;;;33.06;100.00
12801;BME280;6464;42.494;27.470;2022-07-23T15:16:37;101518.16;;;32.23;100.00
12801;BME280;6464;42.494;27.470;2022-07-23T15:19:04;101478.59;;;31.99;100.00
12801;BME280;6464;42.494;27.470;2022-07-23T15:21:31;101447.19;;;31.76;100.00
12801;BME280;6464;42.494;27.470;2022-07-23T15:23:59;101449.69;;;31.60;100.00
12801;BME280;6464;42.494;27.470;2022-07-23T15:26:28;101417.31;;;31.37;100.00
12801;BME280;6464;42.494;27.470;2022-07-23T15:28:56;101462.47;;;31.59;100.00
12801;BME280;6464;42.494;27.470;2022-07-23T15:31:24;101439.22;;;31.55;100.00
12801;BME280;6464;42.494;27.470;2022-07-23T15:33:51;101451.75;;;31.19;100.00
12801;BME280;6464;42.494;27.470;2022-07-23T15:36:19;101438.84;;;31.40;100.00
12801;BME280;6464;42.494;27.470;2022-07-23T15:38:46;101463.06;;;31.63;100.00
12801;BME280;6464;42.494;27.470;2022-07-23T15:41:13;101473.41;;;31.50;100.00
12801;BME280;6464;42.494;27.470;2022-07-23T15:43:42;101457.34;;;31.37;100.00
12801;BME280;6464;42.494;27.470;2022-07-23T15:46:09;101480.56;;;31.12;100.00
12801;BME280;6464;42.494;27.470;2022-07-23T15:48:36;101464.53;;;31.28;100.00
12801;BME280;6464;42.494;27.470;2022-07-23T15:51:04;101462.50;;;30.91;100.00
12801;BME280;6464;42.494;27.470;2022-07-23T15:53:32;101455.03;;;30.74;100.00
12801;BME280;6464;42.494;27.470;2022-07-23T15:55:59;101447.22;;;30.60;100.00
12801;BME280;6464;42.494;27.470;2022-07-23T15:58:27;101430.31;;;30.46;100.00
12801;BME280;6464;42.494;27.470;2022-07-23T16:00:56;101449.59;;;31.03;100.00
12801;BME280;6464;42.494;27.470;2022-07-23T16:03:23;101435.47;;;30.59;100.00
12801;BME280;6464;42.494;27.470;2022-07-23T16:05:50;101467.09;;;31.39;100.00
12801;BME280;6464;42.494;27.470;2022-07-23T16:08:17;101490.31;;;32.10;100.00
12801;BME280;6464;42.494;27.470;2022-07-23T16:10:44;101433.47;;;32.05;100.00
12801;BME280;6464;42.494;27.470;2022-07-23T16:13:11;101507.88;;;32.44;100.00
12801;BME280;6464;42.494;27.470;2022-07-23T16:15:38;101436.31;;;30.40;100.00
12801;BME280;6464;42.494;27.470;2022-07-23T16:18:08;101417.84;;;29.52;100.00
12801;BME280;6464;42.494;27.470;2022-07-23T16:20:36;101394.13;;;29.33;100.00
12801;BME280;6464;42.494;27.470;2022-07-23T16:23:03;101396.53;;;29.27;100.00
12801;BME280;6464;42.494;27.470;2022-07-23T16:25:30;101363.28;;;29.13;100.00
12801;BME280;6464;42.494;27.470;2022-07-23T16:27:57;101407.06;;;29.62;100.00
12801;BME280;6464;42.494;27.470;2022-07-23T16:30:24;101354.13;;;29.14;100.00
12801;BME280;6464;42.494;27.470;2022-07-23T16:32:51;101401.69;;;29.30;100.00
12801;BME280;6464;42.494;27.470;2022-07-23T16:35:19;101404.41;;;29.09;100.00
12801;BME280;6464;42.494;27.470;2022-07-23T16:37:46;101390.38;;;29.04;100.00
12801;BME280;6464;42.494;27.470;2022-07-23T16:40:13;101359.00;;;28.79;100.00
12801;BME280;6464;42.494;27.470;2022-07-23T16:42:40;101375.16;;;28.80;100.00
12801;BME280;6464;42.494;27.470;2022-07-23T16:45:07;101368.72;;;28.81;100.00
12801;BME280;6464;42.494;27.470;2022-07-23T16:47:35;101377.88;;;28.80;100.00
12801;BME280;6464;42.494;27.470;2022-07-23T16:50:03;101366.31;;;28.67;100.00
12801;BME280;6464;42.494;27.470;2022-07-23T16:52:31;101365.38;;;28.89;100.00
12801;BME280;6464;42.494;27.470;2022-07-23T16:54:58;101346.94;;;28.72;100.00
12801;BME280;6464;42.494;27.470;2022-07-23T16:57:25;101371.19;;;28.84;100.00
12801;BME280;6464;42.494;27.470;2022-07-23T16:59:52;101376.09;;;28.90;100.00
12801;BME280;6464;42.494;27.470;2022-07-23T17:02:20;101303.41;;;27.75;100.00
12801;BME280;6464;42.494;27.470;2022-07-23T17:04:47;101270.66;;;27.33;100.00
12801;BME280;6464;42.494;27.470;2022-07-23T17:07:14;101276.56;;;27.50;100.00
12801;BME280;6464;42.494;27.470;2022-07-23T17:09:43;101272.63;;;27.54;100.00
12801;BME280;6464;42.494;27.470;2022-07-23T17:12:10;101281.72;;;27.64;100.00
12801;BME280;6464;42.494;27.470;2022-07-23T17:14:37;101273.09;;;27.59;100.00
12801;BME280;6464;42.494;27.470;2022-07-23T17:17:04;101293.78;;;27.60;100.00
12801;BME280;6464;42.494;27.470;2022-07-23T17:19:31;101280.25;;;27.15;100.00
12801;BME280;6464;42.494;27.470;2022-07-23T17:21:58;101260.16;;;26.95;100.00
12801;BME280;6464;42.494;27.470;2022-07-23T17:24:25;101243.41;;;27.01;100.00
12801;BME280;6464;42.494;27.470;2022-07-23T17:26:53;101240.34;;;27.06;100.00
12801;BME280;6464;42.494;27.470;2022-07-23T17:29:20;101217.69;;;26.96;100.00
12801;BME280;6464;42.494;27.470;2022-07-23T17:31:48;101218.28;;;26.88;100.00
12801;BME280;6464;42.494;27.470;2022-07-23T17:34:15;101230.25;;;26.97;100.00
12801;BME280;6464;42.494;27.470;2022-07-23T17:36:42;101217.56;;;26.97;100.00
12801;BME280;6464;42.494;27.470;2022-07-23T17:39:09;101210.66;;;26.82;100.00
12801;BME280;6464;42.494;27.470;2022-07-23T17:41:36;101153.56;;;26.51;100.00